• Join FlightAware (Why Join?)
  • Login
  • US Flag 
02:17AM EDT


 

Airport Tracker/Info


-or-


 

Live Flight TrackerFlight Track Log ✈ N456BK ✈ 12-Jun-2013 ✈ KAVP - KDXR

Flight Track Log - Related Links

Times and Time Zones

All times are in EDT time to prevent confusion due to time zone crossing. See the N456BK flight status page for this flight to view local times or setup timezone preferences in your user account.

Time Position Orientation Groundspeed Altitude Reporting Facility
EDT Latitude Longitude Course Direction KTS MPH feet Rate Location/Type
08:43PM 41.4738 -75.4261 77° East  Level FlightAware Approximate
08:44PM 41.4838 -75.3690 77° East  Level FlightAware Approximate
08:45PM 41.4938 -75.3118 77° East  Level FlightAware Approximate
08:46PM 41.5037 -75.2546 77° East  Level FlightAware Approximate
08:46PM 41.5167 -75.2167 76° East 183 211 4,900  Level New York TRACON
08:47PM 41.5136 -75.1974 77° East  Level FlightAware Approximate
08:47PM 41.5333 -75.1500 72° East 182 209 4,900  Level New York TRACON
08:48PM 41.5235 -75.1402 77° East  Level FlightAware Approximate
08:48PM 41.5500 -75.0833 72° East 182 209 4,900  Level New York TRACON
08:49PM 41.5334 -75.0829 76° East  Level FlightAware Approximate
08:49PM 41.5500 -75.0167 90° East 180 207 4,900  Level New York TRACON
08:50PM 41.5438 -75.0258 76° East  Level FlightAware Approximate
08:50PM 41.5667 -74.9500 72° East 180 207 4,900  Level New York TRACON
08:51PM 41.5542 -74.9687 76° East  Level FlightAware Approximate
08:51PM 41.5667 -74.8833 90° East 180 207 5,000  Level New York TRACON
08:52PM 41.5667 -74.8167 90° East 181 208 4,900 -60 Descending New York TRACON
08:53PM 41.5500 -74.7500 108° East 180 207 4,900  Level New York TRACON
08:54PM 41.5333 -74.6833 108° East 179 206 4,900  Level New York TRACON
08:55PM 41.5333 -74.6167 90° East 179 206 4,900  Level New York TRACON
08:56PM 41.5167 -74.5500 108° East 179 206 4,900  Level New York TRACON
08:57PM 41.5167 -74.4833 90° East 179 206 4,900  Level New York TRACON
08:58PM 41.5000 -74.4167 108° East 175 201 4,900  Level New York TRACON
08:59PM 41.5000 -74.3667 90° East 172 198 4,900  Level New York TRACON
09:00PM 41.4833 -74.3000 108° East 175 201 4,900  Level New York TRACON
09:01PM 41.4833 -74.2333 90° East 171 197 4,900  Level New York TRACON
09:02PM 41.4667 -74.1667 108° East 179 206 4,900  Level New York TRACON
09:03PM 41.4667 -74.1000 90° East 179 206 4,900  Level New York TRACON
09:04PM 41.4333 -74.0500 132° Southeast 183 211 4,900 -120 Level New York TRACON
09:05PM 41.4167 -73.9833 108° East 185 213 4,700 -420 Descending New York TRACON
09:06PM 41.3833 -73.9333 132° Southeast 191 220 4,100 -660 Descending New York TRACON
09:07PM 41.3667 -73.8667 108° East 192 221 3,400 -600 Descending New York TRACON
09:08PM 41.3500 -73.8000 108° East 185 213 3,000 -240 Descending New York TRACON
09:09PM 41.3167 -73.7500 132° Southeast 171 197 3,000  Level New York TRACON
09:10PM 41.3167 -73.6833 90° East 162 186 3,000 -120 Level New York TRACON
09:11PM 41.3333 -73.6333 66° East 155 178 2,800 -480 Descending New York TRACON
09:12PM 41.3333 -73.5833 90° East 135 155 2,100 -780 Descending New York TRACON
09:13PM 41.3500 -73.5500 56° Northeast 126 145 1,400 -480 Descending New York TRACON
09:14PM 41.3667 -73.5000 66° East 125 144 1,200 -240 Descending New York TRACON
09:16PM 41.3715 -73.4822 37° Northeast  Level Estimated
09:23PM 41.3715 -73.4822 37° Northeast  Level Estimated
09:24PM 41.3715 -73.4822 37° Northeast  Level Estimated
09:25PM 41.3715 -73.4822 37° Northeast  Level Estimated
09:26PM 41.3715 -73.4822 37° Northeast  Level Estimated